sensor_id;sensor_type;location;lat;lon;timestamp;P1;durP1;ratioP1;P2;durP2;ratioP2
5412;SDS011;2729;50.056;8.678;2022-11-06T00:00:36;5.40;;;3.80;;
5412;SDS011;2729;50.056;8.678;2022-11-06T00:03:02;8.33;;;4.20;;
5412;SDS011;2729;50.056;8.678;2022-11-06T00:05:29;8.30;;;4.20;;
5412;SDS011;2729;50.056;8.678;2022-11-06T00:08:14;10.33;;;4.20;;
5412;SDS011;2729;50.056;8.678;2022-11-06T00:10:40;8.90;;;4.57;;
5412;SDS011;2729;50.056;8.678;2022-11-06T00:13:06;5.30;;;3.87;;
5412;SDS011;2729;50.056;8.678;2022-11-06T00:15:32;7.90;;;3.87;;
5412;SDS011;2729;50.056;8.678;2022-11-06T00:17:58;5.50;;;4.10;;
5412;SDS011;2729;50.056;8.678;2022-11-06T00:20:24;9.17;;;3.93;;
5412;SDS011;2729;50.056;8.678;2022-11-06T00:22:50;9.53;;;3.70;;
5412;SDS011;2729;50.056;8.678;2022-11-06T00:25:16;4.97;;;3.63;;
5412;SDS011;2729;50.056;8.678;2022-11-06T00:27:42;5.40;;;3.70;;
5412;SDS011;2729;50.056;8.678;2022-11-06T00:30:09;4.60;;;4.10;;
5412;SDS011;2729;50.056;8.678;2022-11-06T00:32:38;7.93;;;3.80;;
5412;SDS011;2729;50.056;8.678;2022-11-06T00:35:04;4.43;;;3.80;;
5412;SDS011;2729;50.056;8.678;2022-11-06T00:37:31;13.13;;;4.37;;
5412;SDS011;2729;50.056;8.678;2022-11-06T00:39:58;4.17;;;3.80;;
5412;SDS011;2729;50.056;8.678;2022-11-06T00:42:24;7.00;;;4.53;;
5412;SDS011;2729;50.056;8.678;2022-11-06T00:44:50;5.83;;;4.20;;
5412;SDS011;2729;50.056;8.678;2022-11-06T00:47:15;7.00;;;3.97;;
5412;SDS011;2729;50.056;8.678;2022-11-06T00:49:41;6.97;;;4.50;;
5412;SDS011;2729;50.056;8.678;2022-11-06T00:52:07;7.10;;;4.00;;
5412;SDS011;2729;50.056;8.678;2022-11-06T00:54:33;5.70;;;3.70;;
5412;SDS011;2729;50.056;8.678;2022-11-06T00:56:59;5.57;;;4.03;;
5412;SDS011;2729;50.056;8.678;2022-11-06T00:59:25;4.87;;;3.80;;
5412;SDS011;2729;50.056;8.678;2022-11-06T01:01:51;13.63;;;4.60;;
5412;SDS011;2729;50.056;8.678;2022-11-06T01:04:21;8.20;;;4.07;;
5412;SDS011;2729;50.056;8.678;2022-11-06T01:06:49;11.03;;;4.20;;
5412;SDS011;2729;50.056;8.678;2022-11-06T01:09:18;6.03;;;4.33;;
5412;SDS011;2729;50.056;8.678;2022-11-06T01:11:47;8.53;;;4.07;;
5412;SDS011;2729;50.056;8.678;2022-11-06T01:14:15;7.13;;;5.00;;
5412;SDS011;2729;50.056;8.678;2022-11-06T01:16:43;7.27;;;3.80;;
5412;SDS011;2729;50.056;8.678;2022-11-06T01:19:13;6.50;;;4.27;;
5412;SDS011;2729;50.056;8.678;2022-11-06T01:21:42;8.13;;;4.60;;
5412;SDS011;2729;50.056;8.678;2022-11-06T01:24:11;7.20;;;4.50;;
5412;SDS011;2729;50.056;8.678;2022-11-06T01:26:40;8.07;;;4.27;;
5412;SDS011;2729;50.056;8.678;2022-11-06T01:29:07;8.53;;;4.30;;
5412;SDS011;2729;50.056;8.678;2022-11-06T01:31:36;8.33;;;4.93;;
5412;SDS011;2729;50.056;8.678;2022-11-06T01:34:02;5.27;;;4.20;;
5412;SDS011;2729;50.056;8.678;2022-11-06T01:36:29;7.50;;;4.00;;
5412;SDS011;2729;50.056;8.678;2022-11-06T01:38:57;7.73;;;4.00;;
5412;SDS011;2729;50.056;8.678;2022-11-06T01:41:30;6.17;;;3.57;;
5412;SDS011;2729;50.056;8.678;2022-11-06T01:44:02;14.70;;;4.30;;
5412;SDS011;2729;50.056;8.678;2022-11-06T01:46:51;6.13;;;3.60;;
5412;SDS011;2729;50.056;8.678;2022-11-06T01:49:17;6.50;;;3.37;;
5412;SDS011;2729;50.056;8.678;2022-11-06T01:51:45;11.23;;;4.47;;
5412;SDS011;2729;50.056;8.678;2022-11-06T01:54:12;7.43;;;3.90;;
5412;SDS011;2729;50.056;8.678;2022-11-06T01:56:39;7.03;;;3.73;;
5412;SDS011;2729;50.056;8.678;2022-11-06T01:59:08;7.27;;;4.50;;
5412;SDS011;2729;50.056;8.678;2022-11-06T02:01:37;7.53;;;4.50;;
5412;SDS011;2729;50.056;8.678;2022-11-06T02:04:08;11.60;;;4.33;;
5412;SDS011;2729;50.056;8.678;2022-11-06T02:06:39;6.00;;;3.77;;
5412;SDS011;2729;50.056;8.678;2022-11-06T02:09:05;8.83;;;3.73;;
5412;SDS011;2729;50.056;8.678;2022-11-06T02:11:36;7.70;;;4.50;;
5412;SDS011;2729;50.056;8.678;2022-11-06T02:16:58;10.13;;;4.27;;
5412;SDS011;2729;50.056;8.678;2022-11-06T02:20:36;8.77;;;4.40;;
5412;SDS011;2729;50.056;8.678;2022-11-06T02:25:48;7.03;;;4.30;;
5412;SDS011;2729;50.056;8.678;2022-11-06T02:31:10;9.50;;;5.07;;
5412;SDS011;2729;50.056;8.678;2022-11-06T02:33:48;9.50;;;4.97;;
5412;SDS011;2729;50.056;8.678;2022-11-06T02:36:20;5.90;;;3.90;;
5412;SDS011;2729;50.056;8.678;2022-11-06T02:38:55;11.13;;;5.07;;
5412;SDS011;2729;50.056;8.678;2022-11-06T02:41:43;10.27;;;4.37;;
5412;SDS011;2729;50.056;8.678;2022-11-06T02:44:12;5.17;;;3.50;;
5412;SDS011;2729;50.056;8.678;2022-11-06T02:46:48;5.60;;;3.93;;
5412;SDS011;2729;50.056;8.678;2022-11-06T02:52:12;5.73;;;4.63;;
5412;SDS011;2729;50.056;8.678;2022-11-06T02:54:44;9.23;;;4.77;;
5412;SDS011;2729;50.056;8.678;2022-11-06T02:57:15;6.00;;;4.70;;
5412;SDS011;2729;50.056;8.678;2022-11-06T03:00:00;6.37;;;3.90;;
5412;SDS011;2729;50.056;8.678;2022-11-06T03:03:19;7.03;;;4.77;;
5412;SDS011;2729;50.056;8.678;2022-11-06T03:05:28;12.83;;;4.37;;
5412;SDS011;2729;50.056;8.678;2022-11-06T03:10:55;7.37;;;4.20;;
5412;SDS011;2729;50.056;8.678;2022-11-06T03:19:23;5.23;;;4.23;;
5412;SDS011;2729;50.056;8.678;2022-11-06T03:27:34;7.80;;;4.50;;
5412;SDS011;2729;50.056;8.678;2022-11-06T03:30:09;4.87;;;3.90;;
5412;SDS011;2729;50.056;8.678;2022-11-06T03:32:58;10.77;;;4.40;;
5412;SDS011;2729;50.056;8.678;2022-11-06T03:35:30;6.40;;;4.30;;
5412;SDS011;2729;50.056;8.678;2022-11-06T03:38:06;8.87;;;5.00;;
5412;SDS011;2729;50.056;8.678;2022-11-06T03:40:39;7.33;;;4.20;;
5412;SDS011;2729;50.056;8.678;2022-11-06T03:43:09;9.40;;;4.87;;
5412;SDS011;2729;50.056;8.678;2022-11-06T03:45:38;6.10;;;4.17;;
5412;SDS011;2729;50.056;8.678;2022-11-06T03:48:41;11.20;;;5.03;;
5412;SDS011;2729;50.056;8.678;2022-11-06T03:51:11;12.10;;;4.27;;
5412;SDS011;2729;50.056;8.678;2022-11-06T03:53:44;11.67;;;5.97;;
5412;SDS011;2729;50.056;8.678;2022-11-06T03:58:53;9.00;;;4.97;;
5412;SDS011;2729;50.056;8.678;2022-11-06T04:01:23;10.03;;;5.37;;
5412;SDS011;2729;50.056;8.678;2022-11-06T04:04:04;10.90;;;5.97;;
5412;SDS011;2729;50.056;8.678;2022-11-06T04:06:43;8.63;;;5.00;;
5412;SDS011;2729;50.056;8.678;2022-11-06T04:09:13;8.70;;;5.67;;
5412;SDS011;2729;50.056;8.678;2022-11-06T04:12:00;13.13;;;5.70;;
5412;SDS011;2729;50.056;8.678;2022-11-06T04:14:48;7.70;;;4.63;;
5412;SDS011;2729;50.056;8.678;2022-11-06T04:17:17;9.63;;;5.10;;
5412;SDS011;2729;50.056;8.678;2022-11-06T04:19:51;9.67;;;5.20;;
5412;SDS011;2729;50.056;8.678;2022-11-06T04:33:25;5.23;;;4.10;;
5412;SDS011;2729;50.056;8.678;2022-11-06T04:36:02;8.67;;;5.63;;
5412;SDS011;2729;50.056;8.678;2022-11-06T04:38:52;7.40;;;4.60;;
5412;SDS011;2729;50.056;8.678;2022-11-06T04:41:27;9.70;;;4.80;;
5412;SDS011;2729;50.056;8.678;2022-11-06T04:46:32;6.13;;;4.07;;
5412;SDS011;2729;50.056;8.678;2022-11-06T04:49:05;7.80;;;5.00;;
5412;SDS011;2729;50.056;8.678;2022-11-06T04:51:32;6.30;;;4.10;;
5412;SDS011;2729;50.056;8.678;2022-11-06T04:54:02;4.07;;;3.23;;
5412;SDS011;2729;50.056;8.678;2022-11-06T04:56:34;9.10;;;4.50;;
5412;SDS011;2729;50.056;8.678;2022-11-06T04:59:02;7.93;;;4.13;;
5412;SDS011;2729;50.056;8.678;2022-11-06T05:01:29;8.47;;;4.80;;
5412;SDS011;2729;50.056;8.678;2022-11-06T05:03:55;7.40;;;3.73;;
5412;SDS011;2729;50.056;8.678;2022-11-06T05:06:21;12.10;;;4.13;;
5412;SDS011;2729;50.056;8.678;2022-11-06T05:08:47;4.20;;;3.50;;
5412;SDS011;2729;50.056;8.678;2022-11-06T05:11:12;8.37;;;4.40;;
5412;SDS011;2729;50.056;8.678;2022-11-06T05:13:38;12.07;;;4.67;;
5412;SDS011;2729;50.056;8.678;2022-11-06T05:16:05;9.67;;;4.80;;
5412;SDS011;2729;50.056;8.678;2022-11-06T05:18:31;16.53;;;4.93;;
5412;SDS011;2729;50.056;8.678;2022-11-06T05:21:00;5.93;;;4.03;;
5412;SDS011;2729;50.056;8.678;2022-11-06T05:23:46;9.03;;;5.07;;
5412;SDS011;2729;50.056;8.678;2022-11-06T05:26:12;4.47;;;3.80;;
5412;SDS011;2729;50.056;8.678;2022-11-06T05:28:38;5.30;;;4.10;;
5412;SDS011;2729;50.056;8.678;2022-11-06T05:31:04;9.60;;;4.70;;
5412;SDS011;2729;50.056;8.678;2022-11-06T05:33:30;7.67;;;4.13;;
5412;SDS011;2729;50.056;8.678;2022-11-06T05:36:00;7.07;;;4.37;;
5412;SDS011;2729;50.056;8.678;2022-11-06T05:38:27;6.77;;;4.37;;
5412;SDS011;2729;50.056;8.678;2022-11-06T05:40:53;6.70;;;4.67;;
5412;SDS011;2729;50.056;8.678;2022-11-06T05:43:19;11.70;;;4.67;;
5412;SDS011;2729;50.056;8.678;2022-11-06T05:45:45;5.70;;;3.60;;
5412;SDS011;2729;50.056;8.678;2022-11-06T05:48:11;8.53;;;4.47;;
5412;SDS011;2729;50.056;8.678;2022-11-06T05:50:37;12.87;;;4.40;;
5412;SDS011;2729;50.056;8.678;2022-11-06T05:53:04;8.87;;;3.77;;
5412;SDS011;2729;50.056;8.678;2022-11-06T05:55:30;5.37;;;3.80;;
5412;SDS011;2729;50.056;8.678;2022-11-06T05:57:56;9.27;;;4.17;;
5412;SDS011;2729;50.056;8.678;2022-11-06T06:00:22;7.20;;;4.77;;
5412;SDS011;2729;50.056;8.678;2022-11-06T06:02:48;25.20;;;4.10;;
5412;SDS011;2729;50.056;8.678;2022-11-06T06:05:14;10.23;;;4.13;;
5412;SDS011;2729;50.056;8.678;2022-11-06T06:07:40;10.83;;;3.70;;
5412;SDS011;2729;50.056;8.678;2022-11-06T06:10:06;5.37;;;3.70;;
5412;SDS011;2729;50.056;8.678;2022-11-06T06:12:32;4.30;;;3.87;;
5412;SDS011;2729;50.056;8.678;2022-11-06T06:14:58;9.70;;;4.57;;
5412;SDS011;2729;50.056;8.678;2022-11-06T06:17:24;9.10;;;4.03;;
5412;SDS011;2729;50.056;8.678;2022-11-06T06:19:51;11.77;;;5.00;;
5412;SDS011;2729;50.056;8.678;2022-11-06T06:22:18;5.33;;;4.10;;
5412;SDS011;2729;50.056;8.678;2022-11-06T06:24:44;4.57;;;3.40;;
5412;SDS011;2729;50.056;8.678;2022-11-06T06:27:10;7.90;;;4.53;;
5412;SDS011;2729;50.056;8.678;2022-11-06T06:29:36;7.67;;;3.67;;
5412;SDS011;2729;50.056;8.678;2022-11-06T06:32:02;4.60;;;3.80;;
5412;SDS011;2729;50.056;8.678;2022-11-06T06:34:29;8.50;;;4.10;;
5412;SDS011;2729;50.056;8.678;2022-11-06T06:36:55;6.70;;;3.90;;
5412;SDS011;2729;50.056;8.678;2022-11-06T06:39:21;6.40;;;3.60;;
5412;SDS011;2729;50.056;8.678;2022-11-06T06:41:47;7.07;;;4.30;;
5412;SDS011;2729;50.056;8.678;2022-11-06T06:44:15;9.90;;;3.90;;
5412;SDS011;2729;50.056;8.678;2022-11-06T06:46:41;5.03;;;3.80;;
5412;SDS011;2729;50.056;8.678;2022-11-06T06:49:07;5.80;;;4.33;;
5412;SDS011;2729;50.056;8.678;2022-11-06T06:51:33;6.37;;;4.03;;
5412;SDS011;2729;50.056;8.678;2022-11-06T06:53:59;5.90;;;3.50;;
5412;SDS011;2729;50.056;8.678;2022-11-06T06:56:25;8.17;;;3.80;;
5412;SDS011;2729;50.056;8.678;2022-11-06T06:58:54;8.93;;;4.43;;
5412;SDS011;2729;50.056;8.678;2022-11-06T07:01:21;8.90;;;4.00;;
5412;SDS011;2729;50.056;8.678;2022-11-06T07:03:47;7.03;;;4.10;;
5412;SDS011;2729;50.056;8.678;2022-11-06T07:06:13;6.90;;;3.70;;
5412;SDS011;2729;50.056;8.678;2022-11-06T07:08:39;6.83;;;4.27;;
5412;SDS011;2729;50.056;8.678;2022-11-06T07:11:07;4.50;;;3.80;;
5412;SDS011;2729;50.056;8.678;2022-11-06T07:13:34;5.17;;;3.30;;
5412;SDS011;2729;50.056;8.678;2022-11-06T07:16:07;10.83;;;3.37;;
5412;SDS011;2729;50.056;8.678;2022-11-06T07:18:35;6.83;;;3.83;;
5412;SDS011;2729;50.056;8.678;2022-11-06T07:21:06;7.43;;;4.20;;
5412;SDS011;2729;50.056;8.678;2022-11-06T07:23:34;5.87;;;4.20;;
5412;SDS011;2729;50.056;8.678;2022-11-06T07:26:01;10.40;;;4.20;;
5412;SDS011;2729;50.056;8.678;2022-11-06T07:28:28;4.50;;;3.40;;
5412;SDS011;2729;50.056;8.678;2022-11-06T07:30:58;6.00;;;3.90;;
5412;SDS011;2729;50.056;8.678;2022-11-06T07:33:26;6.27;;;4.07;;
5412;SDS011;2729;50.056;8.678;2022-11-06T07:35:52;7.40;;;4.40;;
5412;SDS011;2729;50.056;8.678;2022-11-06T07:38:18;3.17;;;2.83;;
5412;SDS011;2729;50.056;8.678;2022-11-06T07:40:44;6.23;;;4.07;;
5412;SDS011;2729;50.056;8.678;2022-11-06T07:43:10;5.77;;;4.37;;
5412;SDS011;2729;50.056;8.678;2022-11-06T07:45:36;9.93;;;3.90;;
5412;SDS011;2729;50.056;8.678;2022-11-06T07:48:03;4.30;;;3.40;;
5412;SDS011;2729;50.056;8.678;2022-11-06T07:50:30;3.80;;;3.37;;
5412;SDS011;2729;50.056;8.678;2022-11-06T07:52:57;4.67;;;3.47;;
5412;SDS011;2729;50.056;8.678;2022-11-06T07:55:25;6.80;;;4.13;;
5412;SDS011;2729;50.056;8.678;2022-11-06T07:57:51;6.07;;;3.77;;
5412;SDS011;2729;50.056;8.678;2022-11-06T08:00:17;12.50;;;3.87;;
5412;SDS011;2729;50.056;8.678;2022-11-06T08:02:43;9.87;;;4.03;;
5412;SDS011;2729;50.056;8.678;2022-11-06T08:05:09;14.40;;;4.00;;
5412;SDS011;2729;50.056;8.678;2022-11-06T08:07:35;5.80;;;3.60;;
5412;SDS011;2729;50.056;8.678;2022-11-06T08:10:01;5.17;;;3.87;;
5412;SDS011;2729;50.056;8.678;2022-11-06T08:12:27;9.13;;;4.43;;
5412;SDS011;2729;50.056;8.678;2022-11-06T08:14:53;7.70;;;4.30;;
5412;SDS011;2729;50.056;8.678;2022-11-06T08:17:19;12.87;;;4.17;;
5412;SDS011;2729;50.056;8.678;2022-11-06T08:19:45;6.83;;;3.97;;
5412;SDS011;2729;50.056;8.678;2022-11-06T08:22:11;8.10;;;4.10;;
5412;SDS011;2729;50.056;8.678;2022-11-06T08:24:37;7.50;;;4.20;;
5412;SDS011;2729;50.056;8.678;2022-11-06T08:27:02;4.60;;;4.10;;
5412;SDS011;2729;50.056;8.678;2022-11-06T08:29:28;6.10;;;4.33;;
5412;SDS011;2729;50.056;8.678;2022-11-06T08:31:54;6.83;;;3.60;;
5412;SDS011;2729;50.056;8.678;2022-11-06T08:34:20;6.97;;;4.23;;
5412;SDS011;2729;50.056;8.678;2022-11-06T08:36:46;6.90;;;4.20;;
5412;SDS011;2729;50.056;8.678;2022-11-06T08:39:16;12.03;;;4.43;;
5412;SDS011;2729;50.056;8.678;2022-11-06T08:41:42;3.80;;;3.50;;
5412;SDS011;2729;50.056;8.678;2022-11-06T08:44:09;10.30;;;5.60;;
5412;SDS011;2729;50.056;8.678;2022-11-06T08:46:35;5.97;;;3.63;;
5412;SDS011;2729;50.056;8.678;2022-11-06T08:49:01;6.07;;;4.53;;
5412;SDS011;2729;50.056;8.678;2022-11-06T08:51:27;5.07;;;4.03;;
5412;SDS011;2729;50.056;8.678;2022-11-06T08:53:53;9.03;;;4.83;;
5412;SDS011;2729;50.056;8.678;2022-11-06T08:56:19;10.83;;;4.03;;
5412;SDS011;2729;50.056;8.678;2022-11-06T08:58:45;7.70;;;5.13;;
5412;SDS011;2729;50.056;8.678;2022-11-06T09:01:11;6.93;;;4.63;;
5412;SDS011;2729;50.056;8.678;2022-11-06T09:03:37;7.87;;;5.37;;
5412;SDS011;2729;50.056;8.678;2022-11-06T09:06:04;8.33;;;4.50;;
5412;SDS011;2729;50.056;8.678;2022-11-06T09:08:31;6.67;;;4.73;;
5412;SDS011;2729;50.056;8.678;2022-11-06T09:10:57;17.37;;;5.83;;
5412;SDS011;2729;50.056;8.678;2022-11-06T09:13:23;7.13;;;5.10;;
5412;SDS011;2729;50.056;8.678;2022-11-06T09:15:49;12.00;;;5.50;;
5412;SDS011;2729;50.056;8.678;2022-11-06T09:18:15;8.93;;;4.50;;
5412;SDS011;2729;50.056;8.678;2022-11-06T09:20:41;8.13;;;4.80;;
5412;SDS011;2729;50.056;8.678;2022-11-06T09:23:08;8.67;;;5.27;;
5412;SDS011;2729;50.056;8.678;2022-11-06T09:25:34;7.80;;;5.13;;
5412;SDS011;2729;50.056;8.678;2022-11-06T09:28:00;8.93;;;4.33;;
5412;SDS011;2729;50.056;8.678;2022-11-06T09:30:27;11.70;;;4.40;;
5412;SDS011;2729;50.056;8.678;2022-11-06T09:32:56;6.87;;;4.20;;
5412;SDS011;2729;50.056;8.678;2022-11-06T09:35:25;6.20;;;4.13;;
5412;SDS011;2729;50.056;8.678;2022-11-06T09:37:52;6.30;;;4.40;;
5412;SDS011;2729;50.056;8.678;2022-11-06T09:40:19;7.90;;;4.60;;
5412;SDS011;2729;50.056;8.678;2022-11-06T09:43:01;6.57;;;4.30;;
5412;SDS011;2729;50.056;8.678;2022-11-06T09:45:32;4.63;;;3.37;;
5412;SDS011;2729;50.056;8.678;2022-11-06T09:48:05;5.33;;;3.40;;
5412;SDS011;2729;50.056;8.678;2022-11-06T09:50:58;11.37;;;4.43;;
5412;SDS011;2729;50.056;8.678;2022-11-06T09:56:32;8.70;;;3.37;;
5412;SDS011;2729;50.056;8.678;2022-11-06T09:59:00;9.93;;;4.23;;
5412;SDS011;2729;50.056;8.678;2022-11-06T10:01:34;5.33;;;3.07;;
5412;SDS011;2729;50.056;8.678;2022-11-06T10:04:09;5.47;;;3.30;;
5412;SDS011;2729;50.056;8.678;2022-11-06T10:06:46;10.70;;;3.80;;
5412;SDS011;2729;50.056;8.678;2022-11-06T10:09:12;4.97;;;3.90;;
5412;SDS011;2729;50.056;8.678;2022-11-06T10:11:44;5.40;;;3.60;;
5412;SDS011;2729;50.056;8.678;2022-11-06T10:19:55;4.60;;;3.90;;
5412;SDS011;2729;50.056;8.678;2022-11-06T10:22:31;5.43;;;3.37;;
5412;SDS011;2729;50.056;8.678;2022-11-06T10:25:21;4.17;;;3.30;;
5412;SDS011;2729;50.056;8.678;2022-11-06T10:31:07;4.40;;;3.90;;
5412;SDS011;2729;50.056;8.678;2022-11-06T10:33:48;5.00;;;3.67;;
5412;SDS011;2729;50.056;8.678;2022-11-06T10:36:22;3.50;;;3.20;;
5412;SDS011;2729;50.056;8.678;2022-11-06T10:38:54;6.37;;;3.90;;
5412;SDS011;2729;50.056;8.678;2022-11-06T10:41:24;5.27;;;2.97;;
5412;SDS011;2729;50.056;8.678;2022-11-06T10:43:56;4.93;;;3.23;;
5412;SDS011;2729;50.056;8.678;2022-11-06T10:46:36;5.27;;;2.80;;
5412;SDS011;2729;50.056;8.678;2022-11-06T10:49:09;3.13;;;2.77;;
5412;SDS011;2729;50.056;8.678;2022-11-06T10:51:50;6.00;;;2.83;;
5412;SDS011;2729;50.056;8.678;2022-11-06T11:00:13;4.87;;;2.73;;
5412;SDS011;2729;50.056;8.678;2022-11-06T11:02:43;5.40;;;3.13;;
5412;SDS011;2729;50.056;8.678;2022-11-06T11:05:17;3.77;;;2.90;;
5412;SDS011;2729;50.056;8.678;2022-11-06T11:07:45;4.17;;;2.60;;
5412;SDS011;2729;50.056;8.678;2022-11-06T11:12:51;3.40;;;2.80;;
5412;SDS011;2729;50.056;8.678;2022-11-06T11:15:23;3.60;;;2.80;;
5412;SDS011;2729;50.056;8.678;2022-11-06T11:18:05;4.37;;;2.90;;
5412;SDS011;2729;50.056;8.678;2022-11-06T11:20:39;3.43;;;3.00;;
5412;SDS011;2729;50.056;8.678;2022-11-06T11:25:32;4.07;;;2.97;;
5412;SDS011;2729;50.056;8.678;2022-11-06T11:27:58;5.63;;;3.03;;
5412;SDS011;2729;50.056;8.678;2022-11-06T11:30:24;2.20;;;2.00;;
5412;SDS011;2729;50.056;8.678;2022-11-06T11:32:51;6.60;;;2.77;;
5412;SDS011;2729;50.056;8.678;2022-11-06T11:35:19;2.47;;;2.10;;
5412;SDS011;2729;50.056;8.678;2022-11-06T11:37:49;2.60;;;2.40;;
5412;SDS011;2729;50.056;8.678;2022-11-06T11:40:35;2.87;;;2.10;;
5412;SDS011;2729;50.056;8.678;2022-11-06T11:48:39;2.47;;;2.27;;
5412;SDS011;2729;50.056;8.678;2022-11-06T11:54:22;2.13;;;2.03;;
5412;SDS011;2729;50.056;8.678;2022-11-06T11:59:29;2.20;;;2.00;;
5412;SDS011;2729;50.056;8.678;2022-11-06T12:04:48;2.10;;;1.90;;
5412;SDS011;2729;50.056;8.678;2022-11-06T12:07:23;2.07;;;1.93;;
5412;SDS011;2729;50.056;8.678;2022-11-06T12:09:52;10.80;;;3.60;;
5412;SDS011;2729;50.056;8.678;2022-11-06T12:12:23;2.67;;;2.10;;
5412;SDS011;2729;50.056;8.678;2022-11-06T12:17:35;4.40;;;2.10;;
5412;SDS011;2729;50.056;8.678;2022-11-06T12:20:04;2.00;;;1.90;;
5412;SDS011;2729;50.056;8.678;2022-11-06T12:22:39;2.43;;;2.23;;
5412;SDS011;2729;50.056;8.678;2022-11-06T12:25:31;1.90;;;1.73;;
5412;SDS011;2729;50.056;8.678;2022-11-06T12:28:04;1.83;;;1.73;;
5412;SDS011;2729;50.056;8.678;2022-11-06T12:30:37;2.00;;;1.90;;
5412;SDS011;2729;50.056;8.678;2022-11-06T12:33:20;2.70;;;1.80;;
5412;SDS011;2729;50.056;8.678;2022-11-06T12:35:51;2.80;;;2.00;;
5412;SDS011;2729;50.056;8.678;2022-11-06T12:38:31;3.77;;;1.90;;
5412;SDS011;2729;50.056;8.678;2022-11-06T12:43:47;1.87;;;1.77;;
5412;SDS011;2729;50.056;8.678;2022-11-06T12:55:02;1.40;;;1.30;;
5412;SDS011;2729;50.056;8.678;2022-11-06T12:57:45;3.30;;;1.53;;
5412;SDS011;2729;50.056;8.678;2022-11-06T13:00:18;1.83;;;1.70;;
5412;SDS011;2729;50.056;8.678;2022-11-06T13:05:54;1.70;;;1.60;;
5412;SDS011;2729;50.056;8.678;2022-11-06T13:08:40;1.97;;;1.50;;
5412;SDS011;2729;50.056;8.678;2022-11-06T13:16:29;1.67;;;1.57;;
5412;SDS011;2729;50.056;8.678;2022-11-06T13:27:21;3.53;;;2.17;;
5412;SDS011;2729;50.056;8.678;2022-11-06T13:29:53;1.73;;;1.63;;
5412;SDS011;2729;50.056;8.678;2022-11-06T13:32:26;17.23;;;1.83;;
5412;SDS011;2729;50.056;8.678;2022-11-06T13:34:57;1.70;;;1.60;;
5412;SDS011;2729;50.056;8.678;2022-11-06T13:37:37;2.63;;;1.57;;
5412;SDS011;2729;50.056;8.678;2022-11-06T13:42:49;1.67;;;1.57;;
5412;SDS011;2729;50.056;8.678;2022-11-06T13:45:19;3.07;;;1.87;;
5412;SDS011;2729;50.056;8.678;2022-11-06T13:50:56;1.57;;;1.47;;
5412;SDS011;2729;50.056;8.678;2022-11-06T13:53:31;1.70;;;1.60;;
5412;SDS011;2729;50.056;8.678;2022-11-06T13:56:04;1.83;;;1.73;;
5412;SDS011;2729;50.056;8.678;2022-11-06T14:04:39;1.70;;;1.60;;
5412;SDS011;2729;50.056;8.678;2022-11-06T14:07:19;1.70;;;1.60;;
5412;SDS011;2729;50.056;8.678;2022-11-06T14:09:47;1.50;;;1.40;;
5412;SDS011;2729;50.056;8.678;2022-11-06T14:12:18;1.97;;;1.87;;
5412;SDS011;2729;50.056;8.678;2022-11-06T14:14:48;2.57;;;2.17;;
5412;SDS011;2729;50.056;8.678;2022-11-06T14:17:20;2.13;;;1.93;;
5412;SDS011;2729;50.056;8.678;2022-11-06T14:22:23;1.63;;;1.53;;
5412;SDS011;2729;50.056;8.678;2022-11-06T14:24:54;5.23;;;1.70;;
5412;SDS011;2729;50.056;8.678;2022-11-06T14:30:02;1.90;;;1.80;;
5412;SDS011;2729;50.056;8.678;2022-11-06T14:32:35;1.90;;;1.47;;
5412;SDS011;2729;50.056;8.678;2022-11-06T14:40:39;1.70;;;1.60;;
5412;SDS011;2729;50.056;8.678;2022-11-06T14:43:26;1.37;;;1.30;;
5412;SDS011;2729;50.056;8.678;2022-11-06T14:48:49;2.23;;;1.67;;
5412;SDS011;2729;50.056;8.678;2022-11-06T14:51:23;2.23;;;1.63;;
5412;SDS011;2729;50.056;8.678;2022-11-06T14:53:55;2.07;;;1.90;;
5412;SDS011;2729;50.056;8.678;2022-11-06T14:56:25;3.00;;;1.90;;
5412;SDS011;2729;50.056;8.678;2022-11-06T14:58:54;2.73;;;2.30;;
5412;SDS011;2729;50.056;8.678;2022-11-06T15:01:29;3.23;;;2.17;;
5412;SDS011;2729;50.056;8.678;2022-11-06T15:04:01;3.17;;;2.80;;
5412;SDS011;2729;50.056;8.678;2022-11-06T15:16:36;3.10;;;2.10;;
5412;SDS011;2729;50.056;8.678;2022-11-06T15:21:47;2.47;;;2.27;;
5412;SDS011;2729;50.056;8.678;2022-11-06T15:26:58;2.90;;;2.40;;
5412;SDS011;2729;50.056;8.678;2022-11-06T15:29:33;2.80;;;2.13;;
5412;SDS011;2729;50.056;8.678;2022-11-06T15:32:09;2.27;;;2.07;;
5412;SDS011;2729;50.056;8.678;2022-11-06T15:34:43;2.70;;;2.30;;
5412;SDS011;2729;50.056;8.678;2022-11-06T15:37:18;3.23;;;2.90;;
5412;SDS011;2729;50.056;8.678;2022-11-06T15:39:51;2.43;;;2.23;;
5412;SDS011;2729;50.056;8.678;2022-11-06T15:42:22;3.27;;;2.97;;
5412;SDS011;2729;50.056;8.678;2022-11-06T15:44:50;3.30;;;2.40;;
5412;SDS011;2729;50.056;8.678;2022-11-06T15:47:23;2.50;;;2.30;;
5412;SDS011;2729;50.056;8.678;2022-11-06T15:52:40;2.70;;;1.87;;
5412;SDS011;2729;50.056;8.678;2022-11-06T15:55:42;1.73;;;1.63;;
5412;SDS011;2729;50.056;8.678;2022-11-06T15:58:06;1.93;;;1.80;;
5412;SDS011;2729;50.056;8.678;2022-11-06T16:00:42;1.80;;;1.70;;
5412;SDS011;2729;50.056;8.678;2022-11-06T16:03:10;2.63;;;1.67;;
5412;SDS011;2729;50.056;8.678;2022-11-06T16:05:39;2.10;;;1.90;;
5412;SDS011;2729;50.056;8.678;2022-11-06T16:08:05;2.00;;;1.90;;
5412;SDS011;2729;50.056;8.678;2022-11-06T16:10:33;2.10;;;1.97;;
5412;SDS011;2729;50.056;8.678;2022-11-06T16:13:01;2.70;;;1.80;;
5412;SDS011;2729;50.056;8.678;2022-11-06T16:18:08;1.80;;;1.70;;
5412;SDS011;2729;50.056;8.678;2022-11-06T16:20:48;3.37;;;2.50;;
5412;SDS011;2729;50.056;8.678;2022-11-06T16:23:20;2.27;;;2.07;;
5412;SDS011;2729;50.056;8.678;2022-11-06T16:25:55;2.00;;;1.90;;
5412;SDS011;2729;50.056;8.678;2022-11-06T16:28:23;1.73;;;1.63;;
5412;SDS011;2729;50.056;8.678;2022-11-06T16:30:51;2.00;;;1.90;;
5412;SDS011;2729;50.056;8.678;2022-11-06T16:33:17;2.30;;;2.10;;
5412;SDS011;2729;50.056;8.678;2022-11-06T16:35:45;2.00;;;1.90;;
5412;SDS011;2729;50.056;8.678;2022-11-06T16:40:50;4.13;;;2.87;;
5412;SDS011;2729;50.056;8.678;2022-11-06T16:43:18;3.13;;;2.20;;
5412;SDS011;2729;50.056;8.678;2022-11-06T16:48:23;2.67;;;2.47;;
5412;SDS011;2729;50.056;8.678;2022-11-06T16:50:52;2.57;;;2.37;;
5412;SDS011;2729;50.056;8.678;2022-11-06T16:53:20;2.17;;;2.00;;
5412;SDS011;2729;50.056;8.678;2022-11-06T16:55:53;4.43;;;1.90;;
5412;SDS011;2729;50.056;8.678;2022-11-06T16:58:21;2.80;;;2.50;;
5412;SDS011;2729;50.056;8.678;2022-11-06T17:00:55;2.47;;;2.27;;
5412;SDS011;2729;50.056;8.678;2022-11-06T17:03:25;3.17;;;2.87;;
5412;SDS011;2729;50.056;8.678;2022-11-06T17:05:55;3.67;;;2.53;;
5412;SDS011;2729;50.056;8.678;2022-11-06T17:08:23;5.40;;;2.50;;
5412;SDS011;2729;50.056;8.678;2022-11-06T17:10:57;2.77;;;2.40;;
5412;SDS011;2729;50.056;8.678;2022-11-06T17:13:31;7.17;;;2.50;;
5412;SDS011;2729;50.056;8.678;2022-11-06T17:15:58;2.57;;;2.37;;
5412;SDS011;2729;50.056;8.678;2022-11-06T17:18:28;3.33;;;3.10;;
5412;SDS011;2729;50.056;8.678;2022-11-06T17:21:03;4.20;;;3.53;;
5412;SDS011;2729;50.056;8.678;2022-11-06T17:23:31;4.87;;;4.23;;
5412;SDS011;2729;50.056;8.678;2022-11-06T17:26:02;4.70;;;3.97;;
5412;SDS011;2729;50.056;8.678;2022-11-06T17:28:29;4.83;;;3.43;;
5412;SDS011;2729;50.056;8.678;2022-11-06T17:30:55;4.70;;;3.20;;
5412;SDS011;2729;50.056;8.678;2022-11-06T17:33:21;5.40;;;3.63;;
5412;SDS011;2729;50.056;8.678;2022-11-06T17:35:47;4.07;;;3.17;;
5412;SDS011;2729;50.056;8.678;2022-11-06T17:38:14;9.67;;;2.60;;
5412;SDS011;2729;50.056;8.678;2022-11-06T17:40:42;2.80;;;2.50;;
5412;SDS011;2729;50.056;8.678;2022-11-06T17:43:10;3.47;;;2.73;;
5412;SDS011;2729;50.056;8.678;2022-11-06T17:45:39;4.10;;;2.97;;
5412;SDS011;2729;50.056;8.678;2022-11-06T17:48:09;6.57;;;3.80;;
5412;SDS011;2729;50.056;8.678;2022-11-06T17:50:35;5.10;;;3.63;;
5412;SDS011;2729;50.056;8.678;2022-11-06T17:53:20;9.20;;;3.83;;
5412;SDS011;2729;50.056;8.678;2022-11-06T17:55:46;7.83;;;3.50;;
5412;SDS011;2729;50.056;8.678;2022-11-06T17:58:12;4.30;;;3.90;;
5412;SDS011;2729;50.056;8.678;2022-11-06T18:00:38;6.57;;;4.33;;
5412;SDS011;2729;50.056;8.678;2022-11-06T18:03:04;6.57;;;3.60;;
5412;SDS011;2729;50.056;8.678;2022-11-06T18:05:30;6.90;;;4.43;;
5412;SDS011;2729;50.056;8.678;2022-11-06T18:07:56;9.17;;;4.37;;
5412;SDS011;2729;50.056;8.678;2022-11-06T18:10:22;9.63;;;4.40;;
5412;SDS011;2729;50.056;8.678;2022-11-06T18:12:48;8.37;;;4.57;;
5412;SDS011;2729;50.056;8.678;2022-11-06T18:15:16;6.30;;;4.67;;